sensor_id;sensor_type;location;lat;lon;timestamp;pressure;altitude;pressure_sealevel;temperature;humidity
65832;BME280;52593;42.648;23.332;2023-05-03T00:00:31;94859.66;;;11.19;47.97
65832;BME280;52593;42.648;23.332;2023-05-03T00:02:56;94868.34;;;11.21;47.83
65832;BME280;52593;42.648;23.332;2023-05-03T00:05:22;94864.97;;;11.27;47.26
65832;BME280;52593;42.648;23.332;2023-05-03T00:07:48;94855.00;;;11.13;47.58
65832;BME280;52593;42.648;23.332;2023-05-03T00:10:13;94857.63;;;11.21;47.37
65832;BME280;52593;42.648;23.332;2023-05-03T00:12:42;94869.41;;;11.12;47.05
65832;BME280;52593;42.648;23.332;2023-05-03T00:15:09;94866.97;;;11.02;47.43
65832;BME280;52593;42.648;23.332;2023-05-03T00:17:35;94870.59;;;11.09;47.36
65832;BME280;52593;42.648;23.332;2023-05-03T00:20:02;94878.50;;;11.02;47.72
65832;BME280;52593;42.648;23.332;2023-05-03T00:22:28;94885.81;;;11.09;47.29
65832;BME280;52593;42.648;23.332;2023-05-03T00:24:54;94885.25;;;10.98;47.69
65832;BME280;52593;42.648;23.332;2023-05-03T00:27:20;94886.53;;;11.02;47.68
65832;BME280;52593;42.648;23.332;2023-05-03T00:29:46;94881.59;;;10.91;48.06
65832;BME280;52593;42.648;23.332;2023-05-03T00:32:11;94885.28;;;10.90;48.02
65832;BME280;52593;42.648;23.332;2023-05-03T00:34:37;94886.31;;;10.89;48.29
65832;BME280;52593;42.648;23.332;2023-05-03T00:37:02;94894.16;;;10.91;48.14
65832;BME280;52593;42.648;23.332;2023-05-03T00:39:31;94893.66;;;10.87;47.99
65832;BME280;52593;42.648;23.332;2023-05-03T00:42:00;94879.16;;;10.81;47.78
65832;BME280;52593;42.648;23.332;2023-05-03T00:44:29;94891.75;;;10.73;48.32
65832;BME280;52593;42.648;23.332;2023-05-03T00:46:55;94882.06;;;10.71;48.25
65832;BME280;52593;42.648;23.332;2023-05-03T00:49:23;94883.09;;;10.70;48.07
65832;BME280;52593;42.648;23.332;2023-05-03T00:51:50;94886.22;;;10.74;47.89
65832;BME280;52593;42.648;23.332;2023-05-03T00:54:15;94877.38;;;10.74;47.84
65832;BME280;52593;42.648;23.332;2023-05-03T00:56:41;94878.66;;;10.78;48.08
65832;BME280;52593;42.648;23.332;2023-05-03T00:59:07;94876.41;;;10.66;47.68
65832;BME280;52593;42.648;23.332;2023-05-03T01:01:32;94884.59;;;10.65;47.90
65832;BME280;52593;42.648;23.332;2023-05-03T01:04:02;94872.09;;;10.57;47.94
65832;BME280;52593;42.648;23.332;2023-05-03T01:09:09;94872.66;;;10.44;48.46
65832;BME280;52593;42.648;23.332;2023-05-03T01:14:52;94873.50;;;10.45;48.15
65832;BME280;52593;42.648;23.332;2023-05-03T01:17:23;94867.66;;;10.41;48.39
65832;BME280;52593;42.648;23.332;2023-05-03T01:19:57;94864.09;;;10.49;48.36
65832;BME280;52593;42.648;23.332;2023-05-03T01:22:37;94853.00;;;10.37;48.41
65832;BME280;52593;42.648;23.332;2023-05-03T01:25:09;94845.81;;;10.29;48.82
65832;BME280;52593;42.648;23.332;2023-05-03T01:27:35;94850.81;;;10.32;48.80
65832;BME280;52593;42.648;23.332;2023-05-03T01:30:05;94858.16;;;10.30;48.69
65832;BME280;52593;42.648;23.332;2023-05-03T01:37:54;94853.66;;;10.31;49.08
65832;BME280;52593;42.648;23.332;2023-05-03T01:40:21;94841.50;;;10.20;49.29
65832;BME280;52593;42.648;23.332;2023-05-03T01:42:47;94853.03;;;10.21;49.15
65832;BME280;52593;42.648;23.332;2023-05-03T01:45:14;94854.34;;;10.25;49.05
65832;BME280;52593;42.648;23.332;2023-05-03T01:47:40;94849.53;;;10.20;49.21
65832;BME280;52593;42.648;23.332;2023-05-03T01:50:05;94840.66;;;10.20;49.35
65832;BME280;52593;42.648;23.332;2023-05-03T01:52:31;94834.88;;;10.08;49.72
65832;BME280;52593;42.648;23.332;2023-05-03T01:54:56;94825.47;;;10.12;49.25
65832;BME280;52593;42.648;23.332;2023-05-03T01:57:21;94821.69;;;10.06;49.63
65832;BME280;52593;42.648;23.332;2023-05-03T01:59:47;94815.81;;;10.03;49.65
65832;BME280;52593;42.648;23.332;2023-05-03T02:02:12;94811.16;;;10.05;49.57
65832;BME280;52593;42.648;23.332;2023-05-03T02:04:38;94807.03;;;9.94;49.63
65832;BME280;52593;42.648;23.332;2023-05-03T02:07:03;94808.03;;;9.85;49.79
65832;BME280;52593;42.648;23.332;2023-05-03T02:09:28;94813.72;;;9.90;49.66
65832;BME280;52593;42.648;23.332;2023-05-03T02:11:54;94800.34;;;9.90;49.80
65832;BME280;52593;42.648;23.332;2023-05-03T02:14:19;94799.03;;;9.86;49.87
65832;BME280;52593;42.648;23.332;2023-05-03T02:16:45;94800.81;;;9.93;49.79
65832;BME280;52593;42.648;23.332;2023-05-03T02:19:10;94790.19;;;9.77;50.15
65832;BME280;52593;42.648;23.332;2023-05-03T02:21:36;94790.69;;;9.80;50.68
65832;BME280;52593;42.648;23.332;2023-05-03T02:24:01;94782.34;;;9.75;50.75
65832;BME280;52593;42.648;23.332;2023-05-03T02:26:27;94781.47;;;9.83;50.54
65832;BME280;52593;42.648;23.332;2023-05-03T02:28:53;94783.16;;;9.84;50.96
65832;BME280;52593;42.648;23.332;2023-05-03T02:31:20;94779.13;;;9.88;50.58
65832;BME280;52593;42.648;23.332;2023-05-03T02:33:45;94771.81;;;9.82;50.69
65832;BME280;52593;42.648;23.332;2023-05-03T02:36:10;94779.66;;;9.75;51.21
65832;BME280;52593;42.648;23.332;2023-05-03T02:38:37;94770.34;;;9.71;51.42
65832;BME280;52593;42.648;23.332;2023-05-03T02:41:02;94785.38;;;9.72;51.00
65832;BME280;52593;42.648;23.332;2023-05-03T02:43:28;94795.06;;;9.73;51.29
65832;BME280;52593;42.648;23.332;2023-05-03T02:45:53;94788.25;;;9.62;51.32
65832;BME280;52593;42.648;23.332;2023-05-03T02:48:18;94800.56;;;9.72;51.05
65832;BME280;52593;42.648;23.332;2023-05-03T02:50:44;94794.72;;;9.76;51.13
65832;BME280;52593;42.648;23.332;2023-05-03T02:53:09;94793.03;;;9.75;51.12
65832;BME280;52593;42.648;23.332;2023-05-03T02:55:36;94791.38;;;9.74;51.28
65832;BME280;52593;42.648;23.332;2023-05-03T02:58:01;94788.22;;;9.71;51.19
65832;BME280;52593;42.648;23.332;2023-05-03T04:23:16;94880.38;;;9.83;51.64
65832;BME280;52593;42.648;23.332;2023-05-03T04:29:04;94889.41;;;9.74;51.52
65832;BME280;52593;42.648;23.332;2023-05-03T04:35:08;94905.78;;;9.79;52.22
65832;BME280;52593;42.648;23.332;2023-05-03T04:37:41;94904.09;;;9.78;52.00
65832;BME280;52593;42.648;23.332;2023-05-03T04:40:07;94910.63;;;9.75;52.23
65832;BME280;52593;42.648;23.332;2023-05-03T04:42:33;94904.44;;;9.75;52.42
65832;BME280;52593;42.648;23.332;2023-05-03T04:44:59;94911.94;;;9.79;52.40
65832;BME280;52593;42.648;23.332;2023-05-03T04:50:48;94919.66;;;9.74;53.02
65832;BME280;52593;42.648;23.332;2023-05-03T04:53:16;94917.28;;;9.79;53.54
65832;BME280;52593;42.648;23.332;2023-05-03T04:55:41;94929.81;;;9.71;53.74
65832;BME280;52593;42.648;23.332;2023-05-03T04:58:07;94933.19;;;9.73;54.09
65832;BME280;52593;42.648;23.332;2023-05-03T05:00:32;94940.03;;;9.67;55.14
65832;BME280;52593;42.648;23.332;2023-05-03T05:02:58;94952.56;;;9.42;57.37
65832;BME280;52593;42.648;23.332;2023-05-03T05:05:23;94955.72;;;9.45;59.45
65832;BME280;52593;42.648;23.332;2023-05-03T05:07:48;94958.56;;;9.27;60.40
65832;BME280;52593;42.648;23.332;2023-05-03T05:10:14;94961.91;;;9.38;61.47
65832;BME280;52593;42.648;23.332;2023-05-03T05:12:39;94967.75;;;9.33;61.84
65832;BME280;52593;42.648;23.332;2023-05-03T05:15:05;94955.19;;;9.17;62.33
65832;BME280;52593;42.648;23.332;2023-05-03T05:17:31;94958.25;;;9.39;60.27
65832;BME280;52593;42.648;23.332;2023-05-03T05:19:56;94958.22;;;9.31;61.42
65832;BME280;52593;42.648;23.332;2023-05-03T05:22:21;94959.91;;;9.23;61.13
65832;BME280;52593;42.648;23.332;2023-05-03T05:25:06;94960.59;;;9.42;60.69
65832;BME280;52593;42.648;23.332;2023-05-03T05:27:33;94960.91;;;9.47;59.67
65832;BME280;52593;42.648;23.332;2023-05-03T05:29:58;94960.09;;;9.46;59.64
65832;BME280;52593;42.648;23.332;2023-05-03T05:32:23;94956.06;;;9.42;59.62
65832;BME280;52593;42.648;23.332;2023-05-03T05:34:49;94968.44;;;9.52;60.33
65832;BME280;52593;42.648;23.332;2023-05-03T05:37:23;94959.22;;;9.62;59.63
65832;BME280;52593;42.648;23.332;2023-05-03T05:39:49;94971.59;;;9.63;58.91
65832;BME280;52593;42.648;23.332;2023-05-03T05:42:14;94955.91;;;9.60;59.42
65832;BME280;52593;42.648;23.332;2023-05-03T05:44:40;94955.56;;;9.63;59.60
65832;BME280;52593;42.648;23.332;2023-05-03T05:47:06;94969.25;;;9.60;59.60
65832;BME280;52593;42.648;23.332;2023-05-03T05:49:31;94952.91;;;9.63;59.42
65832;BME280;52593;42.648;23.332;2023-05-03T05:51:57;94958.25;;;9.63;59.65
65832;BME280;52593;42.648;23.332;2023-05-03T05:54:22;94960.06;;;9.63;60.65
65832;BME280;52593;42.648;23.332;2023-05-03T05:56:48;94961.91;;;9.54;59.65
65832;BME280;52593;42.648;23.332;2023-05-03T05:59:14;94956.06;;;9.51;58.11
65832;BME280;52593;42.648;23.332;2023-05-03T06:01:40;94959.22;;;9.46;58.51
65832;BME280;52593;42.648;23.332;2023-05-03T06:04:09;94959.22;;;9.46;58.95
65832;BME280;52593;42.648;23.332;2023-05-03T06:06:34;94952.56;;;9.58;58.64
65832;BME280;52593;42.648;23.332;2023-05-03T06:09:00;94957.06;;;9.58;59.08
65832;BME280;52593;42.648;23.332;2023-05-03T06:11:26;94954.72;;;9.63;58.51
65832;BME280;52593;42.648;23.332;2023-05-03T06:13:51;94958.91;;;9.57;60.23
65832;BME280;52593;42.648;23.332;2023-05-03T06:16:17;94955.06;;;9.52;59.96
65832;BME280;52593;42.648;23.332;2023-05-03T06:18:42;94948.88;;;9.76;60.15
65832;BME280;52593;42.648;23.332;2023-05-03T06:21:07;94957.69;;;9.85;60.08
65832;BME280;52593;42.648;23.332;2023-05-03T06:23:34;94954.25;;;10.32;62.20
65832;BME280;52593;42.648;23.332;2023-05-03T06:26:02;94954.41;;;10.55;61.60
65832;BME280;52593;42.648;23.332;2023-05-03T06:28:27;94948.56;;;10.51;61.12
65832;BME280;52593;42.648;23.332;2023-05-03T06:30:53;94942.47;;;10.10;60.48
65832;BME280;52593;42.648;23.332;2023-05-03T06:33:18;94944.88;;;10.44;61.24
65832;BME280;52593;42.648;23.332;2023-05-03T06:35:43;94939.34;;;10.94;62.66
65832;BME280;52593;42.648;23.332;2023-05-03T06:38:11;94942.84;;;10.63;60.34
65832;BME280;52593;42.648;23.332;2023-05-03T06:40:36;94931.97;;;10.56;59.58
65832;BME280;52593;42.648;23.332;2023-05-03T06:43:02;94931.56;;;10.76;59.66
65832;BME280;52593;42.648;23.332;2023-05-03T06:45:28;94922.31;;;10.47;58.09
65832;BME280;52593;42.648;23.332;2023-05-03T06:47:53;94923.66;;;10.43;57.88
65832;BME280;52593;42.648;23.332;2023-05-03T06:50:18;94918.00;;;10.38;59.40
65832;BME280;52593;42.648;23.332;2023-05-03T06:52:45;94908.66;;;10.33;59.64
65832;BME280;52593;42.648;23.332;2023-05-03T06:55:11;94906.53;;;10.12;59.42
65832;BME280;52593;42.648;23.332;2023-05-03T06:57:37;94908.19;;;10.22;58.74
65832;BME280;52593;42.648;23.332;2023-05-03T07:00:03;94912.91;;;10.03;59.25
65832;BME280;52593;42.648;23.332;2023-05-03T07:02:32;94915.13;;;10.47;58.01
65832;BME280;52593;42.648;23.332;2023-05-03T07:04:57;94910.03;;;10.13;58.30
65832;BME280;52593;42.648;23.332;2023-05-03T07:07:22;94907.66;;;10.34;58.32
65832;BME280;52593;42.648;23.332;2023-05-03T07:09:48;94911.72;;;10.06;59.10
65832;BME280;52593;42.648;23.332;2023-05-03T07:12:14;94909.03;;;10.14;58.67
65832;BME280;52593;42.648;23.332;2023-05-03T07:14:40;94913.38;;;10.15;58.82
65832;BME280;52593;42.648;23.332;2023-05-03T07:17:08;94914.84;;;10.26;58.93
65832;BME280;52593;42.648;23.332;2023-05-03T07:19:34;94918.03;;;10.29;58.83
65832;BME280;52593;42.648;23.332;2023-05-03T07:21:59;94901.63;;;10.24;58.72
65832;BME280;52593;42.648;23.332;2023-05-03T07:24:27;94910.22;;;10.11;58.65
65832;BME280;52593;42.648;23.332;2023-05-03T07:26:52;94909.56;;;10.09;59.30
65832;BME280;52593;42.648;23.332;2023-05-03T07:29:18;94917.25;;;10.12;59.45
65832;BME280;52593;42.648;23.332;2023-05-03T07:31:43;94907.41;;;10.05;59.47
65832;BME280;52593;42.648;23.332;2023-05-03T07:34:11;94905.00;;;10.18;59.70
65832;BME280;52593;42.648;23.332;2023-05-03T07:36:38;94894.94;;;10.28;59.54
65832;BME280;52593;42.648;23.332;2023-05-03T07:39:03;94895.00;;;10.12;60.39
65832;BME280;52593;42.648;23.332;2023-05-03T07:41:29;94888.94;;;10.34;59.94
65832;BME280;52593;42.648;23.332;2023-05-03T07:43:55;94878.47;;;10.56;59.45
65832;BME280;52593;42.648;23.332;2023-05-03T07:46:20;94889.13;;;10.64;59.35
65832;BME280;52593;42.648;23.332;2023-05-03T07:48:46;94889.25;;;10.71;59.52
65832;BME280;52593;42.648;23.332;2023-05-03T07:51:11;94891.81;;;10.64;59.58
65832;BME280;52593;42.648;23.332;2023-05-03T07:53:37;94896.44;;;10.39;59.67
65832;BME280;52593;42.648;23.332;2023-05-03T07:56:05;94898.03;;;10.57;59.71
65832;BME280;52593;42.648;23.332;2023-05-03T07:58:31;94902.69;;;10.63;60.19
65832;BME280;52593;42.648;23.332;2023-05-03T08:00:56;94909.69;;;10.64;60.02
65832;BME280;52593;42.648;23.332;2023-05-03T08:03:21;94915.03;;;10.72;60.42
65832;BME280;52593;42.648;23.332;2023-05-03T08:05:48;94914.34;;;10.70;60.42
65832;BME280;52593;42.648;23.332;2023-05-03T08:08:13;94914.00;;;11.04;59.79
65832;BME280;52593;42.648;23.332;2023-05-03T08:10:39;94904.88;;;10.91;60.17
65832;BME280;52593;42.648;23.332;2023-05-03T08:13:05;94924.63;;;11.13;59.97
65832;BME280;52593;42.648;23.332;2023-05-03T08:15:31;94910.72;;;11.17;59.66
65832;BME280;52593;42.648;23.332;2023-05-03T08:17:57;94913.56;;;11.16;60.24
65832;BME280;52593;42.648;23.332;2023-05-03T08:20:22;94912.75;;;11.38;60.28
65832;BME280;52593;42.648;23.332;2023-05-03T08:22:48;94908.38;;;11.37;59.49
65832;BME280;52593;42.648;23.332;2023-05-03T08:25:13;94898.91;;;11.50;58.43
65832;BME280;52593;42.648;23.332;2023-05-03T08:27:41;94907.53;;;11.60;59.25
65832;BME280;52593;42.648;23.332;2023-05-03T08:30:07;94916.22;;;11.62;58.25
65832;BME280;52593;42.648;23.332;2023-05-03T08:32:32;94919.59;;;12.02;59.52
65832;BME280;52593;42.648;23.332;2023-05-03T08:34:58;94923.66;;;12.58;56.35
65832;BME280;52593;42.648;23.332;2023-05-03T08:37:24;94925.59;;;12.49;57.43
65832;BME280;52593;42.648;23.332;2023-05-03T08:39:49;94915.66;;;12.64;57.20
65832;BME280;52593;42.648;23.332;2023-05-03T08:42:15;94912.28;;;12.92;55.92
65832;BME280;52593;42.648;23.332;2023-05-03T08:44:46;94908.47;;;12.35;57.84
65832;BME280;52593;42.648;23.332;2023-05-03T08:47:15;94904.88;;;12.43;56.88
65832;BME280;52593;42.648;23.332;2023-05-03T08:49:41;94914.84;;;12.64;57.29
65832;BME280;52593;42.648;23.332;2023-05-03T08:52:09;94914.78;;;12.57;57.26
65832;BME280;52593;42.648;23.332;2023-05-03T08:54:37;94925.72;;;12.92;56.88
65832;BME280;52593;42.648;23.332;2023-05-03T08:57:03;94927.34;;;12.57;56.73
65832;BME280;52593;42.648;23.332;2023-05-03T08:59:28;94918.47;;;12.11;57.35
65832;BME280;52593;42.648;23.332;2023-05-03T09:01:54;94917.53;;;12.34;57.34
65832;BME280;52593;42.648;23.332;2023-05-03T09:04:19;94920.47;;;12.84;56.84
65832;BME280;52593;42.648;23.332;2023-05-03T09:06:45;94918.84;;;12.38;57.32
65832;BME280;52593;42.648;23.332;2023-05-03T09:09:10;94932.13;;;12.91;57.08
65832;BME280;52593;42.648;23.332;2023-05-03T09:11:37;94917.97;;;13.19;56.33
65832;BME280;52593;42.648;23.332;2023-05-03T09:14:14;94906.94;;;13.14;56.93
65832;BME280;52593;42.648;23.332;2023-05-03T09:16:41;94912.94;;;13.52;55.42
65832;BME280;52593;42.648;23.332;2023-05-03T09:19:09;94898.28;;;13.33;54.51
65832;BME280;52593;42.648;23.332;2023-05-03T09:21:37;94895.88;;;13.24;54.89
65832;BME280;52593;42.648;23.332;2023-05-03T09:24:18;94892.84;;;13.48;55.13
65832;BME280;52593;42.648;23.332;2023-05-03T09:26:45;94888.56;;;13.54;55.66
65832;BME280;52593;42.648;23.332;2023-05-03T09:29:27;94898.91;;;13.79;54.37
65832;BME280;52593;42.648;23.332;2023-05-03T09:32:03;94893.56;;;14.14;53.62
65832;BME280;52593;42.648;23.332;2023-05-03T09:34:33;94889.41;;;14.46;52.80
65832;BME280;52593;42.648;23.332;2023-05-03T09:36:59;94875.63;;;14.62;53.21
65832;BME280;52593;42.648;23.332;2023-05-03T09:39:25;94864.84;;;13.93;53.69
65832;BME280;52593;42.648;23.332;2023-05-03T09:41:51;94862.63;;;14.38;52.75
65832;BME280;52593;42.648;23.332;2023-05-03T09:44:17;94858.94;;;14.94;51.60
65832;BME280;52593;42.648;23.332;2023-05-03T09:47:05;94861.13;;;15.45;51.35
65832;BME280;52593;42.648;23.332;2023-05-03T09:49:31;94858.69;;;14.69;51.44
65832;BME280;52593;42.648;23.332;2023-05-03T09:51:58;94846.50;;;14.86;51.06
65832;BME280;52593;42.648;23.332;2023-05-03T09:54:24;94850.31;;;14.15;52.86
65832;BME280;52593;42.648;23.332;2023-05-03T09:56:49;94841.22;;;15.33;52.88
65832;BME280;52593;42.648;23.332;2023-05-03T09:59:16;94840.19;;;15.94;50.15
65832;BME280;52593;42.648;23.332;2023-05-03T10:01:42;94839.50;;;16.26;48.75
65832;BME280;52593;42.648;23.332;2023-05-03T10:04:08;94843.25;;;14.56;51.27
65832;BME280;52593;42.648;23.332;2023-05-03T10:06:38;94844.81;;;14.72;53.13
65832;BME280;52593;42.648;23.332;2023-05-03T10:09:20;94849.31;;;15.53;51.80
65832;BME280;52593;42.648;23.332;2023-05-03T10:11:51;94844.13;;;15.51;50.90
65832;BME280;52593;42.648;23.332;2023-05-03T10:14:18;94841.84;;;15.89;50.42
65832;BME280;52593;42.648;23.332;2023-05-03T10:16:47;94843.81;;;16.47;48.43
65832;BME280;52593;42.648;23.332;2023-05-03T10:19:17;94832.22;;;16.33;49.83
65832;BME280;52593;42.648;23.332;2023-05-03T10:22:02;94823.53;;;16.11;49.91
65832;BME280;52593;42.648;23.332;2023-05-03T10:24:28;94819.44;;;15.55;49.93
65832;BME280;52593;42.648;23.332;2023-05-03T10:26:54;94811.34;;;15.34;51.54
65832;BME280;52593;42.648;23.332;2023-05-03T10:32:05;94803.47;;;15.53;51.26
65832;BME280;52593;42.648;23.332;2023-05-03T10:34:56;94809.66;;;15.94;50.87
65832;BME280;52593;42.648;23.332;2023-05-03T10:37:25;94812.56;;;15.99;50.68
65832;BME280;52593;42.648;23.332;2023-05-03T10:39:51;94809.06;;;15.85;51.45
65832;BME280;52593;42.648;23.332;2023-05-03T10:42:20;94801.75;;;16.05;50.85
65832;BME280;52593;42.648;23.332;2023-05-03T10:44:52;94811.56;;;15.86;50.40
65832;BME280;52593;42.648;23.332;2023-05-03T10:47:20;94802.38;;;16.14;50.60
65832;BME280;52593;42.648;23.332;2023-05-03T10:55:15;94810.28;;;15.69;51.39
65832;BME280;52593;42.648;23.332;2023-05-03T10:57:42;94809.47;;;15.55;51.74
65832;BME280;52593;42.648;23.332;2023-05-03T11:00:13;94811.34;;;15.75;51.35
65832;BME280;52593;42.648;23.332;2023-05-03T11:05:32;94807.81;;;15.94;50.15
65832;BME280;52593;42.648;23.332;2023-05-03T11:10:37;94804.19;;;16.27;49.15
65832;BME280;52593;42.648;23.332;2023-05-03T11:13:02;94799.78;;;16.39;48.83
65832;BME280;52593;42.648;23.332;2023-05-03T11:15:28;94790.22;;;16.37;49.65
65832;BME280;52593;42.648;23.332;2023-05-03T11:17:53;94784.09;;;16.03;49.89
65832;BME280;52593;42.648;23.332;2023-05-03T11:20:19;94794.41;;;16.26;49.46
65832;BME280;52593;42.648;23.332;2023-05-03T11:22:45;94790.13;;;16.12;50.30
65832;BME280;52593;42.648;23.332;2023-05-03T11:25:11;94783.47;;;16.14;49.62
65832;BME280;52593;42.648;23.332;2023-05-03T11:27:36;94776.78;;;16.17;49.87
65832;BME280;52593;42.648;23.332;2023-05-03T11:30:02;94774.94;;;16.11;49.66
65832;BME280;52593;42.648;23.332;2023-05-03T11:32:27;94786.94;;;16.28;50.64
65832;BME280;52593;42.648;23.332;2023-05-03T11:34:54;94787.66;;;16.03;50.56
65832;BME280;52593;42.648;23.332;2023-05-03T11:37:20;94783.41;;;16.34;50.08
65832;BME280;52593;42.648;23.332;2023-05-03T11:39:45;94775.50;;;16.78;49.34
65832;BME280;52593;42.648;23.332;2023-05-03T11:42:12;94767.16;;;17.94;46.20
65832;BME280;52593;42.648;23.332;2023-05-03T11:44:37;94757.75;;;18.52;45.58
65832;BME280;52593;42.648;23.332;2023-05-03T11:47:03;94755.53;;;17.87;46.54
65832;BME280;52593;42.648;23.332;2023-05-03T11:49:28;94742.00;;;17.43;48.69
65832;BME280;52593;42.648;23.332;2023-05-03T11:51:54;94740.97;;;17.19;48.58
65832;BME280;52593;42.648;23.332;2023-05-03T11:54:20;94753.47;;;17.13;47.82
65832;BME280;52593;42.648;23.332;2023-05-03T11:56:46;94752.78;;;17.24;47.95
65832;BME280;52593;42.648;23.332;2023-05-03T11:59:11;94742.34;;;17.72;48.40
65832;BME280;52593;42.648;23.332;2023-05-03T12:01:37;94740.00;;;17.32;49.23
65832;BME280;52593;42.648;23.332;2023-05-03T12:04:03;94726.66;;;17.80;48.22
65832;BME280;52593;42.648;23.332;2023-05-03T12:06:33;94721.31;;;17.55;49.12
65832;BME280;52593;42.648;23.332;2023-05-03T12:09:02;94730.28;;;16.99;48.99
65832;BME280;52593;42.648;23.332;2023-05-03T12:11:29;94735.50;;;16.62;50.24
65832;BME280;52593;42.648;23.332;2023-05-03T12:13:59;94736.00;;;16.38;51.03
65832;BME280;52593;42.648;23.332;2023-05-03T12:16:25;94736.53;;;16.99;50.04
65832;BME280;52593;42.648;23.332;2023-05-03T12:18:55;94735.63;;;17.05;49.96
65832;BME280;52593;42.648;23.332;2023-05-03T12:21:24;94739.44;;;16.20;51.31
65832;BME280;52593;42.648;23.332;2023-05-03T12:23:50;94733.50;;;15.92;51.38
65832;BME280;52593;42.648;23.332;2023-05-03T12:26:19;94747.03;;;15.58;52.86
65832;BME280;52593;42.648;23.332;2023-05-03T12:28:47;94739.38;;;15.35;53.25
65832;BME280;52593;42.648;23.332;2023-05-03T12:31:12;94751.41;;;15.19;54.12
65832;BME280;52593;42.648;23.332;2023-05-03T12:33:39;94748.47;;;15.01;54.79
65832;BME280;52593;42.648;23.332;2023-05-03T12:36:04;94751.75;;;14.62;55.85
65832;BME280;52593;42.648;23.332;2023-05-03T12:38:32;94741.63;;;14.78;55.76
65832;BME280;52593;42.648;23.332;2023-05-03T12:40:57;94748.38;;;14.54;56.57
65832;BME280;52593;42.648;23.332;2023-05-03T12:43:24;94744.47;;;14.56;56.60
65832;BME280;52593;42.648;23.332;2023-05-03T12:45:49;94741.47;;;14.38;57.27
65832;BME280;52593;42.648;23.332;2023-05-03T12:48:15;94752.09;;;14.46;57.89
65832;BME280;52593;42.648;23.332;2023-05-03T12:50:40;94757.88;;;14.50;57.56
65832;BME280;52593;42.648;23.332;2023-05-03T12:53:05;94751.84;;;14.34;57.90
65832;BME280;52593;42.648;23.332;2023-05-03T12:55:32;94749.56;;;14.31;58.21
65832;BME280;52593;42.648;23.332;2023-05-03T12:57:59;94738.59;;;14.39;59.23
65832;BME280;52593;42.648;23.332;2023-05-03T13:00:25;94737.97;;;14.37;61.18
65832;BME280;52593;42.648;23.332;2023-05-03T13:02:50;94738.78;;;14.31;61.33
65832;BME280;52593;42.648;23.332;2023-05-03T13:05:16;94740.03;;;13.87;63.26
65832;BME280;52593;42.648;23.332;2023-05-03T13:07:41;94745.47;;;13.94;62.00
65832;BME280;52593;42.648;23.332;2023-05-03T13:10:07;94746.81;;;13.76;63.49
65832;BME280;52593;42.648;23.332;2023-05-03T13:12:34;94737.78;;;13.27;65.12
65832;BME280;52593;42.648;23.332;2023-05-03T13:15:00;94739.31;;;13.36;66.81
65832;BME280;52593;42.648;23.332;2023-05-03T13:17:29;94752.31;;;13.33;68.85
65832;BME280;52593;42.648;23.332;2023-05-03T13:19:55;94762.22;;;13.32;69.34
65832;BME280;52593;42.648;23.332;2023-05-03T13:22:21;94767.94;;;13.23;70.28
65832;BME280;52593;42.648;23.332;2023-05-03T13:24:47;94758.22;;;13.00;69.29
65832;BME280;52593;42.648;23.332;2023-05-03T13:27:13;94754.59;;;12.86;69.84
65832;BME280;52593;42.648;23.332;2023-05-03T13:29:40;94749.31;;;12.93;70.81
65832;BME280;52593;42.648;23.332;2023-05-03T13:32:05;94748.94;;;12.74;72.30
65832;BME280;52593;42.648;23.332;2023-05-03T13:34:32;94752.28;;;12.83;71.68
65832;BME280;52593;42.648;23.332;2023-05-03T13:36:57;94760.00;;;12.49;73.42
65832;BME280;52593;42.648;23.332;2023-05-03T13:39:24;94769.47;;;12.45;74.63
65832;BME280;52593;42.648;23.332;2023-05-03T13:41:50;94774.84;;;12.09;78.32
65832;BME280;52593;42.648;23.332;2023-05-03T13:44:15;94782.97;;;11.86;80.88
65832;BME280;52593;42.648;23.332;2023-05-03T13:46:41;94781.84;;;11.80;83.31
65832;BME280;52593;42.648;23.332;2023-05-03T13:49:07;94784.34;;;11.52;85.31
65832;BME280;52593;42.648;23.332;2023-05-03T13:51:33;94786.59;;;11.25;86.89
65832;BME280;52593;42.648;23.332;2023-05-03T13:54:00;94793.31;;;11.44;87.30
65832;BME280;52593;42.648;23.332;2023-05-03T13:56:26;94780.97;;;11.20;89.05
65832;BME280;52593;42.648;23.332;2023-05-03T13:58:51;94787.06;;;11.14;91.73
65832;BME280;52593;42.648;23.332;2023-05-03T14:01:17;94787.78;;;11.07;92.20
65832;BME280;52593;42.648;23.332;2023-05-03T14:03:42;94785.63;;;11.03;93.18
65832;BME280;52593;42.648;23.332;2023-05-03T14:06:10;94788.25;;;10.88;94.74
65832;BME280;52593;42.648;23.332;2023-05-03T14:08:36;94774.44;;;10.61;96.82
65832;BME280;52593;42.648;23.332;2023-05-03T14:11:01;94778.91;;;10.84;96.26
65832;BME280;52593;42.648;23.332;2023-05-03T14:13:27;94776.91;;;10.86;97.07
65832;BME280;52593;42.648;23.332;2023-05-03T14:15:53;94773.47;;;10.77;97.63
65832;BME280;52593;42.648;23.332;2023-05-03T14:18:19;94780.66;;;10.77;96.76
65832;BME280;52593;42.648;23.332;2023-05-03T14:20:44;94784.50;;;10.97;97.42
65832;BME280;52593;42.648;23.332;2023-05-03T14:23:11;94788.78;;;11.06;98.36
65832;BME280;52593;42.648;23.332;2023-05-03T14:25:36;94786.06;;;11.30;97.99
65832;BME280;52593;42.648;23.332;2023-05-03T14:28:01;94778.50;;;11.33;97.58
65832;BME280;52593;42.648;23.332;2023-05-03T14:30:27;94784.72;;;11.11;99.13
65832;BME280;52593;42.648;23.332;2023-05-03T14:32:52;94790.81;;;11.04;97.97
65832;BME280;52593;42.648;23.332;2023-05-03T14:35:18;94785.50;;;10.96;97.73
65832;BME280;52593;42.648;23.332;2023-05-03T14:37:47;94784.22;;;10.92;97.59
65832;BME280;52593;42.648;23.332;2023-05-03T14:40:13;94773.25;;;11.02;98.02
65832;BME280;52593;42.648;23.332;2023-05-03T14:42:38;94770.00;;;10.68;98.29
65832;BME280;52593;42.648;23.332;2023-05-03T14:45:04;94776.41;;;10.82;98.52
65832;BME280;52593;42.648;23.332;2023-05-03T14:47:31;94770.00;;;10.68;99.89